Time;durP1;ratioP1;P1;durP2;ratioP2;P2;SDS_P1;SDS_P2;PMS_P1;PMS_P2;Temp;Humidity;BMP_temperature;BMP_pressure;BME280_temperature;BME280_humidity;BME280_pressure;Samples;Min_cycle;Max_cycle;Signal;HPM_P1;HPM_P2
2022/11/18 00:01:09;;;;;;;0.28;0.28;;;17.30;72.30;;;;;;5008023;28;20060;-15
2022/11/18 00:03:35;;;;;;;0.30;0.20;;;17.40;72.20;;;;;;4995729;28;20069;-20
2022/11/18 00:06:01;;;;;;;0.40;0.40;;;17.40;72.20;;;;;;4995581;28;20073;-13
2022/11/18 00:08:26;;;;;;;0.40;0.30;;;17.30;73.20;;;;;;4993902;28;20046;-13
2022/11/18 00:10:52;;;;;;;0.80;0.43;;;17.30;72.40;;;;;;4995992;28;20049;-13
2022/11/18 00:16:04;;;;;;;0.50;0.30;;;17.40;72.20;;;;;;4993994;28;20402;-16
2022/11/18 00:18:29;;;;;;;0.40;0.30;;;17.30;72.30;;;;;;4989116;28;20034;-13
2022/11/18 00:20:59;;;;;;;0.50;0.40;;;17.30;72.10;;;;;;4993842;28;20558;-13
2022/11/18 00:23:24;;;;;;;0.30;0.30;;;17.40;72.20;;;;;;5003903;28;20111;-13
2022/11/18 00:25:50;;;;;;;0.30;0.30;;;17.40;72.00;;;;;;5017407;28;20632;-13
2022/11/18 00:28:16;;;;;;;0.40;0.40;;;17.30;72.30;;;;;;5011328;28;20052;-13
2022/11/18 00:30:41;;;;;;;0.32;0.20;;;17.40;72.20;;;;;;4994035;28;20072;-13
2022/11/18 00:33:07;;;;;;;0.50;0.30;;;17.40;72.90;;;;;;4994163;28;20500;-13
2022/11/18 00:35:32;;;;;;;3.00;0.60;;;17.30;72.10;;;;;;4990990;28;20165;-13
2022/11/18 00:37:58;;;;;;;1.25;0.50;;;17.30;72.10;;;;;;4993782;28;20050;-15
2022/11/18 00:40:24;;;;;;;0.32;0.30;;;17.30;72.10;;;;;;4993354;28;20046;-12
2022/11/18 00:42:50;;;;;;;0.28;0.20;;;17.30;72.40;;;;;;5005266;28;20038;-13
2022/11/18 00:45:16;;;;;;;0.75;0.50;;;17.30;72.50;;;;;;4998868;28;20030;-12
2022/11/18 00:47:42;;;;;;;0.20;0.20;;;17.20;72.30;;;;;;4990653;28;20039;-13
2022/11/18 00:50:08;;;;;;;0.47;0.20;;;17.20;72.50;;;;;;4991537;28;20457;-20
2022/11/18 00:52:33;;;;;;;0.40;0.30;;;17.30;72.40;;;;;;4996053;28;20053;-13
2022/11/18 00:54:59;;;;;;;0.35;0.35;;;17.30;72.30;;;;;;5001613;28;20526;-13
2022/11/18 00:57:24;;;;;;;0.85;0.30;;;17.30;72.10;;;;;;4990341;28;20050;-24
2022/11/18 00:59:50;;;;;;;0.20;0.20;;;17.30;72.10;;;;;;4992037;28;20108;-13
2022/11/18 01:02:15;;;;;;;0.43;0.40;;;17.30;72.10;;;;;;5004523;28;20046;-13
2022/11/18 01:04:41;;;;;;;1.00;0.40;;;17.20;72.10;;;;;;5004269;28;20046;-13
2022/11/18 01:07:06;;;;;;;0.35;0.35;;;17.30;72.10;;;;;;5015055;28;20072;-13
2022/11/18 01:09:32;;;;;;;0.57;0.35;;;17.30;72.20;;;;;;5008919;28;20438;-13
2022/11/18 01:14:42;;;;;;;0.40;0.30;;;17.20;72.10;;;;;;4994981;28;20061;-13
2022/11/18 01:17:08;;;;;;;0.17;0.15;;;17.20;72.10;;;;;;4995975;28;20483;-13
2022/11/18 01:19:33;;;;;;;0.40;0.30;;;17.20;72.10;;;;;;4997052;28;20052;-13
2022/11/18 01:22:01;;;;;;;0.40;0.20;;;17.20;72.10;;;;;;4995306;28;20107;-12
2022/11/18 01:24:28;;;;;;;0.68;0.35;;;17.30;72.20;;;;;;4994753;28;20062;-13
2022/11/18 01:26:54;;;;;;;0.38;0.32;;;17.30;72.10;;;;;;4995277;28;20038;-12
2022/11/18 01:29:20;;;;;;;0.85;0.35;;;17.30;72.10;;;;;;4997605;28;20521;-13
2022/11/18 01:31:45;;;;;;;0.22;0.15;;;17.20;72.10;;;;;;4995706;28;20041;-13
2022/11/18 01:34:11;;;;;;;0.25;0.25;;;17.20;72.30;;;;;;4995160;28;20076;-13
2022/11/18 01:36:36;;;;;;;0.30;0.30;;;17.20;72.20;;;;;;4995597;28;20046;-13
2022/11/18 01:39:02;;;;;;;0.40;0.30;;;17.20;72.40;;;;;;4994697;28;20030;-18
2022/11/18 01:41:27;;;;;;;0.65;0.30;;;17.20;72.50;;;;;;4993484;28;20099;-14
2022/11/18 01:44:04;;;;;;;0.52;0.30;;;17.20;73.10;;;;;;4995766;28;20499;-13
2022/11/18 01:46:33;;;;;;;1.00;0.38;;;17.20;72.40;;;;;;4996548;28;20046;-12
2022/11/18 01:49:02;;;;;;;0.45;0.20;;;17.20;72.20;;;;;;4996183;28;20415;-14
2022/11/18 01:51:33;;;;;;;0.38;0.30;;;17.30;72.10;;;;;;4994935;28;20042;-18
2022/11/18 01:54:02;;;;;;;0.50;0.30;;;17.30;72.10;;;;;;4995954;28;20061;-13
2022/11/18 01:56:32;;;;;;;0.25;0.25;;;17.30;71.90;;;;;;5004360;28;20502;-13
2022/11/18 01:59:00;;;;;;;0.68;0.30;;;17.20;72.10;;;;;;5010014;28;20042;-13
2022/11/18 02:01:26;;;;;;;0.50;0.40;;;17.20;72.10;;;;;;5015572;28;20049;-12
2022/11/18 02:03:51;;;;;;;0.50;0.40;;;17.20;72.10;;;;;;5000725;28;20482;-13
2022/11/18 02:06:17;;;;;;;1.00;0.30;;;17.20;72.10;;;;;;4994542;28;20070;-13
2022/11/18 02:08:43;;;;;;;0.32;0.32;;;17.30;72.00;;;;;;4994956;28;20057;-17
2022/11/18 02:11:49;;;;;;;0.30;0.30;;;17.20;71.90;;;;;;4992136;28;20411;-13
2022/11/18 02:13:56;;;;;;;1.00;0.30;;;17.30;72.10;;;;;;4990196;28;20054;-13
2022/11/18 02:16:23;;;;;;;0.52;0.40;;;17.20;72.10;;;;;;5001045;28;20479;-14
2022/11/18 02:18:59;;;;;;;1.08;0.32;;;17.20;72.00;;;;;;4995195;28;20046;-12
2022/11/18 02:21:54;;;;;;;0.85;0.38;;;17.30;72.00;;;;;;4994919;28;20038;-13
2022/11/18 02:24:50;;;;;;;0.50;0.47;;;17.20;72.00;;;;;;4993947;28;20443;-14
2022/11/18 02:27:53;;;;;;;0.28;0.20;;;17.20;71.90;;;;;;5021265;28;20561;-13
2022/11/18 02:30:18;;;;;;;0.30;0.30;;;17.20;72.10;;;;;;4998452;28;20077;-13
2022/11/18 02:33:10;;;;;;;0.28;0.20;;;17.20;72.10;;;;;;4994962;28;20526;-13
2022/11/18 02:35:43;;;;;;;0.40;0.30;;;17.20;72.10;;;;;;4993952;28;20034;-13
2022/11/18 02:38:12;;;;;;;0.20;0.20;;;17.20;72.10;;;;;;4994880;28;20043;-13
2022/11/18 02:40:45;;;;;;;0.60;0.30;;;17.20;72.10;;;;;;4989307;28;20122;-13
2022/11/18 02:43:17;;;;;;;0.75;0.40;;;17.20;72.10;;;;;;4991900;28;20052;-12
2022/11/18 02:45:45;;;;;;;0.47;0.35;;;17.10;72.00;;;;;;4994754;28;20034;-12
2022/11/18 02:48:11;;;;;;;0.20;0.20;;;17.10;72.00;;;;;;5028037;28;20101;-12
2022/11/18 02:50:36;;;;;;;0.52;0.28;;;17.20;72.10;;;;;;4997351;28;20447;-13
2022/11/18 02:53:03;;;;;;;0.30;0.20;;;17.20;72.80;;;;;;4988455;28;20053;-13
2022/11/18 02:55:31;;;;;;;0.30;0.20;;;17.20;71.90;;;;;;4995765;28;20508;-13
2022/11/18 02:57:56;;;;;;;0.35;0.32;;;17.20;71.90;;;;;;4995402;28;20046;-13
2022/11/18 03:00:22;;;;;;;0.60;0.40;;;17.20;72.10;;;;;;4995004;28;20392;-13
2022/11/18 03:02:48;;;;;;;0.40;0.40;;;17.20;72.10;;;;;;4990090;28;20080;-13
2022/11/18 03:05:28;;;;;;;0.38;0.30;;;17.10;72.00;;;;;;4990638;28;20042;-13
2022/11/18 03:07:59;;;;;;;0.32;0.22;;;17.20;71.90;;;;;;4993460;28;20042;-12
2022/11/18 03:10:25;;;;;;;0.73;0.50;;;17.10;72.80;;;;;;4991981;28;20054;-13
2022/11/18 03:13:09;;;;;;;0.20;0.20;;;17.20;71.80;;;;;;4990752;28;20053;-16
2022/11/18 03:15:34;;;;;;;;;;;17.20;71.70;;;;;;4997556;28;20517;-13
2022/11/18 03:18:18;;;;;;;0.40;0.20;;;17.10;71.90;;;;;;4997403;28;20013;-20
2022/11/18 03:20:51;;;;;;;0.50;0.30;;;17.20;71.80;;;;;;4991459;28;20126;-13
2022/11/18 03:23:28;;;;;;;0.30;0.30;;;17.20;71.70;;;;;;4999976;28;20521;-13
2022/11/18 03:25:58;;;;;;;0.52;0.47;;;17.20;71.70;;;;;;5043249;28;20171;-13
2022/11/18 03:28:53;;;;;;;0.98;0.20;;;17.20;71.80;;;;;;5017732;28;20135;-13
2022/11/18 03:31:33;;;;;;;0.63;0.40;;;17.10;71.90;;;;;;5006265;28;20062;-13
2022/11/18 03:34:04;;;;;;;0.50;0.30;;;17.10;71.90;;;;;;5007343;28;20045;-13
2022/11/18 03:36:32;;;;;;;0.43;0.25;;;17.10;72.00;;;;;;4994808;28;20046;-16
2022/11/18 03:38:59;;;;;;;0.20;0.20;;;17.10;71.70;;;;;;5002410;28;20053;-13
2022/11/18 03:41:25;;;;;;;0.40;0.40;;;17.10;71.60;;;;;;5003231;28;20049;-13
2022/11/18 03:44:01;;;;;;;0.30;0.30;;;17.10;71.60;;;;;;5012694;28;20057;-13
2022/11/18 03:46:44;;;;;;;0.40;0.20;;;17.10;71.80;;;;;;5016870;28;20129;-13
2022/11/18 03:49:13;;;;;;;0.35;0.20;;;17.10;72.00;;;;;;5030218;28;20045;-12
2022/11/18 03:51:43;;;;;;;0.45;0.40;;;17.10;72.00;;;;;;5006048;28;20049;-13
2022/11/18 03:54:19;;;;;;;0.30;0.20;;;17.10;72.00;;;;;;5010770;28;20042;-13
2022/11/18 03:56:48;;;;;;;0.43;0.30;;;17.10;72.00;;;;;;4980267;28;20077;-16
2022/11/18 03:59:31;;;;;;;0.38;0.38;;;17.10;72.00;;;;;;5003528;28;20517;-13
2022/11/18 04:02:01;;;;;;;0.50;0.40;;;17.10;72.00;;;;;;5010751;28;20058;-13
2022/11/18 04:04:26;;;;;;;0.32;0.32;;;17.10;72.00;;;;;;5010801;28;20037;-13
2022/11/18 04:07:10;;;;;;;0.30;0.20;;;17.10;71.90;;;;;;5021475;28;20053;-14
2022/11/18 04:09:46;;;;;;;0.30;0.30;;;17.10;71.90;;;;;;5010611;28;20402;-13
2022/11/18 04:12:16;;;;;;;0.65;0.40;;;17.10;71.80;;;;;;4993969;28;20305;-13
2022/11/18 04:14:42;;;;;;;0.40;0.20;;;17.10;71.80;;;;;;4976424;28;20082;-14
2022/11/18 04:17:13;;;;;;;0.28;0.20;;;17.10;72.00;;;;;;5002262;28;20049;-13
2022/11/18 04:19:38;;;;;;;0.40;0.40;;;17.10;71.80;;;;;;5003962;28;20050;-12
2022/11/18 04:22:04;;;;;;;0.22;0.22;;;17.10;71.70;;;;;;5009227;28;20046;-13
2022/11/18 04:24:30;;;;;;;0.30;0.20;;;17.10;72.60;;;;;;4998213;28;20034;-13
2022/11/18 04:26:55;;;;;;;0.30;0.30;;;17.10;71.80;;;;;;4991372;28;20022;-12
2022/11/18 04:29:21;;;;;;;0.40;0.20;;;17.10;71.90;;;;;;4994069;28;20459;-18
2022/11/18 04:31:46;;;;;;;0.47;0.20;;;17.10;72.60;;;;;;4993032;28;20026;-21
2022/11/18 04:34:12;;;;;;;0.20;0.20;;;17.10;71.90;;;;;;4991652;28;20033;-13
2022/11/18 04:36:38;;;;;;;0.50;0.50;;;17.00;71.90;;;;;;4995914;28;20092;-12
2022/11/18 04:39:04;;;;;;;0.63;0.20;;;17.00;71.70;;;;;;4993669;28;20069;-13
2022/11/18 04:44:13;;;;;;;2.28;0.35;;;17.10;71.80;;;;;;5014379;28;20467;-13
2022/11/18 04:46:42;;;;;;;0.85;0.20;;;17.00;72.60;;;;;;5011062;28;20550;-13
2022/11/18 04:49:08;;;;;;;0.57;0.20;;;17.10;71.80;;;;;;4993094;28;20061;-13
2022/11/18 04:51:34;;;;;;;0.68;0.15;;;17.00;71.80;;;;;;5004166;28;20045;-13
2022/11/18 04:53:59;;;;;;;0.20;0.20;;;17.00;71.70;;;;;;5016426;28;20392;-14
2022/11/18 04:56:25;;;;;;;0.68;0.20;;;17.00;71.80;;;;;;5013806;28;20038;-12
2022/11/18 04:58:51;;;;;;;0.85;0.30;;;17.00;71.90;;;;;;4996584;28;20081;-13
2022/11/18 05:01:16;;;;;;;0.60;0.30;;;17.00;71.90;;;;;;4990943;28;20049;-13
2022/11/18 05:03:42;;;;;;;0.22;0.10;;;17.00;71.90;;;;;;4993809;28;20472;-13
2022/11/18 05:06:07;;;;;;;0.20;0.15;;;17.10;71.50;;;;;;5001339;28;20548;-13
2022/11/18 05:08:33;;;;;;;0.40;0.30;;;17.10;71.60;;;;;;4991536;28;20042;-13
2022/11/18 05:12:47;;;;;;;0.50;0.20;;;17.00;71.40;;;;;;4992252;28;20046;-13
2022/11/18 05:13:44;;;;;;;0.30;0.20;;;17.10;71.50;;;;;;4991548;28;20086;-13
2022/11/18 05:16:09;;;;;;;0.20;0.13;;;17.00;71.60;;;;;;4990895;28;20131;-13
2022/11/18 05:18:35;;;;;;;0.57;0.20;;;17.00;71.50;;;;;;4995430;28;20050;-13
2022/11/18 05:21:04;;;;;;;0.20;0.20;;;17.00;71.70;;;;;;4990436;28;20133;-13
2022/11/18 05:23:30;;;;;;;0.20;0.20;;;17.00;71.90;;;;;;4992849;28;20466;-15
2022/11/18 05:25:55;;;;;;;0.25;0.10;;;17.00;71.60;;;;;;4992870;28;20689;-19
2022/11/18 05:28:21;;;;;;;0.77;0.40;;;17.00;71.70;;;;;;4989516;28;20049;-13
2022/11/18 05:30:46;;;;;;;0.75;0.30;;;17.00;71.60;;;;;;4988083;28;20049;-12
2022/11/18 05:33:12;;;;;;;0.40;0.20;;;17.00;71.80;;;;;;4990850;28;20095;-13
2022/11/18 05:35:37;;;;;;;0.15;0.10;;;17.00;71.80;;;;;;5000295;28;20065;-13
2022/11/18 05:38:03;;;;;;;0.30;0.20;;;16.90;71.90;;;;;;5007916;28;20511;-13
2022/11/18 05:40:29;;;;;;;0.32;0.17;;;16.90;71.90;;;;;;4988842;28;20069;-12
2022/11/18 05:43:12;;;;;;;0.45;0.30;;;17.00;71.50;;;;;;4993992;28;20186;-13
2022/11/18 05:45:39;;;;;;;0.15;0.15;;;17.00;71.20;;;;;;5009070;28;20633;-13
2022/11/18 05:48:05;;;;;;;0.13;0.13;;;17.00;71.40;;;;;;5029349;28;20134;-17
2022/11/18 05:50:32;;;;;;;0.22;0.20;;;17.00;71.50;;;;;;5014078;28;20124;-26
2022/11/18 05:52:57;;;;;;;0.10;0.10;;;17.00;71.50;;;;;;5002297;28;20046;-12
2022/11/18 05:55:25;;;;;;;0.20;0.10;;;17.00;71.50;;;;;;4993943;28;20053;-13
2022/11/18 05:57:50;;;;;;;0.40;0.20;;;17.00;71.40;;;;;;4994201;28;20121;-13
2022/11/18 06:00:16;;;;;;;0.30;0.10;;;17.00;71.50;;;;;;4994381;28;20125;-13
2022/11/18 06:02:42;;;;;;;0.47;0.30;;;17.00;71.50;;;;;;4990621;28;20046;-13
2022/11/18 06:05:07;;;;;;;0.32;0.20;;;17.10;71.50;;;;;;4997293;28;20518;-15
2022/11/18 06:07:51;;;;;;;0.20;0.10;;;17.20;70.90;;;;;;4991767;28;20129;-13
2022/11/18 06:10:20;;;;;;;0.93;0.38;;;17.10;71.70;;;;;;4660317;28;10000621;-12
2022/11/18 06:12:46;;;;;;;0.30;0.20;;;17.30;71.70;;;;;;4984418;28;20073;-13
2022/11/18 06:15:18;;;;;;;0.20;0.10;;;17.10;72.20;;;;;;4992024;28;20100;-13
2022/11/18 06:17:50;;;;;;;0.60;0.20;;;17.40;71.90;;;;;;4987989;28;20105;-13
2022/11/18 06:20:19;;;;;;;0.20;0.20;;;17.40;72.00;;;;;;4990818;28;20065;-12
2022/11/18 06:22:44;;;;;;;0.30;0.30;;;17.20;72.80;;;;;;5002109;28;20071;-15
2022/11/18 06:25:10;;;;;;;0.50;0.10;;;17.10;73.00;;;;;;4987437;28;20515;-12
2022/11/18 06:27:35;;;;;;;0.30;0.20;;;17.10;73.10;;;;;;4989107;28;20055;-12
2022/11/18 06:30:01;;;;;;;0.30;0.28;;;17.00;73.20;;;;;;5016356;28;20038;-19
2022/11/18 06:32:27;;;;;;;0.22;0.10;;;17.00;73.10;;;;;;5005762;28;20573;-13
2022/11/18 06:34:52;;;;;;;0.32;0.20;;;17.10;73.10;;;;;;5016736;28;20040;-13
2022/11/18 06:37:21;;;;;;;0.35;0.22;;;17.10;73.30;;;;;;5000820;28;20515;-13
2022/11/18 06:39:46;;;;;;;1.95;0.35;;;17.40;72.20;;;;;;4998011;28;20099;-13
2022/11/18 06:43:37;;;;;;;0.85;0.30;;;17.20;73.20;;;;;;5002345;28;20050;-12
2022/11/18 06:44:57;;;;;;;3.15;0.30;;;17.20;73.30;;;;;;5004935;28;20045;-17
2022/11/18 06:47:23;;;;;;;0.55;0.43;;;17.30;72.90;;;;;;5002824;28;20054;-13
2022/11/18 06:49:49;;;;;;;0.30;0.30;;;17.40;72.40;;;;;;5002757;28;20438;-13
2022/11/18 06:52:14;;;;;;;1.05;0.20;;;17.30;72.30;;;;;;5006014;28;20044;-13
2022/11/18 06:54:40;;;;;;;0.45;0.45;;;17.40;72.20;;;;;;5010287;28;20052;-14
2022/11/18 06:57:05;;;;;;;0.50;0.38;;;17.50;71.80;;;;;;5010994;28;20565;-16
2022/11/18 06:59:31;;;;;;;0.85;0.40;;;17.40;72.00;;;;;;5004238;28;20046;-13
2022/11/18 07:01:56;;;;;;;2.35;0.30;;;17.20;72.60;;;;;;5009736;28;21798;-24
2022/11/18 07:04:22;;;;;;;0.20;0.20;;;17.20;72.90;;;;;;5008393;28;20049;-13
2022/11/18 07:06:48;;;;;;;0.75;0.22;;;17.20;72.70;;;;;;5008018;28;20070;-12
2022/11/18 07:09:13;;;;;;;0.20;0.20;;;17.10;72.90;;;;;;5002969;28;20068;-13
2022/11/18 07:11:40;;;;;;;0.15;0.15;;;17.00;72.90;;;;;;5012061;28;20104;-12
2022/11/18 07:14:07;;;;;;;0.60;0.25;;;17.10;72.60;;;;;;4998523;28;20173;-12
2022/11/18 07:16:33;;;;;;;0.38;0.20;;;17.10;72.40;;;;;;5004269;28;20054;-13
2022/11/18 07:18:58;;;;;;;0.65;0.17;;;17.30;72.10;;;;;;5000596;28;20537;-13
2022/11/18 07:21:27;;;;;;;0.30;0.20;;;17.40;71.60;;;;;;5004771;28;20085;-12
2022/11/18 07:23:53;;;;;;;1.55;0.50;;;17.30;71.80;;;;;;4994659;28;20047;-13
2022/11/18 07:26:19;;;;;;;0.65;0.20;;;17.50;71.30;;;;;;5037176;28;20693;-13
2022/11/18 07:28:45;;;;;;;0.80;0.20;;;17.50;71.00;;;;;;4995841;28;20209;-13
2022/11/18 07:31:12;;;;;;;0.50;0.13;;;17.60;70.90;;;;;;4996048;28;20164;-13
2022/11/18 07:33:38;;;;;;;1.38;0.30;;;17.60;70.80;;;;;;5029550;28;20037;-14
2022/11/18 07:36:05;;;;;;;0.32;0.13;;;17.70;70.70;;;;;;5003085;28;20052;-17
2022/11/18 07:38:31;;;;;;;0.57;0.28;;;17.70;70.50;;;;;;4997475;28;20032;-12
2022/11/18 07:41:13;;;;;;;0.57;0.10;;;17.60;70.70;;;;;;4996670;28;22243;-13
2022/11/18 07:43:39;;;;;;;0.40;0.25;;;17.60;70.70;;;;;;5003920;28;20577;-12
2022/11/18 07:46:17;;;;;;;1.15;0.32;;;17.70;70.40;;;;;;5014272;28;20056;-13
2022/11/18 07:48:44;;;;;;;0.70;0.20;;;17.50;70.80;;;;;;5010326;28;20121;-14
2022/11/18 07:51:09;;;;;;;1.55;0.40;;;17.30;71.30;;;;;;5005848;28;20762;-13
2022/11/18 07:53:35;;;;;;;0.50;0.20;;;17.20;71.70;;;;;;5019738;28;20079;-13
2022/11/18 07:56:01;;;;;;;0.32;0.20;;;17.30;71.50;;;;;;5008676;28;20141;-13
2022/11/18 07:58:26;;;;;;;0.45;0.20;;;17.40;71.00;;;;;;4996615;28;20104;-13
2022/11/18 08:00:52;;;;;;;1.05;0.20;;;17.20;71.40;;;;;;5000668;28;20046;-13
2022/11/18 08:03:17;;;;;;;0.60;0.30;;;17.20;71.50;;;;;;5011609;28;20048;-15
2022/11/18 08:05:43;;;;;;;2.55;0.20;;;17.20;71.70;;;;;;5003644;28;20038;-13
2022/11/18 08:08:09;;;;;;;0.70;0.40;;;17.20;71.40;;;;;;5010061;28;20042;-12
2022/11/18 08:10:35;;;;;;;0.40;0.40;;;17.20;71.40;;;;;;5005547;28;20083;-13
2022/11/18 08:13:01;;;;;;;0.52;0.47;;;17.20;71.80;;;;;;5013300;28;20050;-13
2022/11/18 08:15:27;;;;;;;1.60;0.20;;;17.20;72.00;;;;;;5005875;28;20099;-13
2022/11/18 08:17:52;;;;;;;0.43;0.30;;;17.10;72.70;;;;;;5008311;28;20050;-14
2022/11/18 08:20:18;;;;;;;0.60;0.30;;;17.10;72.10;;;;;;5008363;28;20041;-12
2022/11/18 08:22:43;;;;;;;2.13;0.40;;;17.00;72.40;;;;;;5002695;28;20053;-12
2022/11/18 08:25:09;;;;;;;1.10;0.35;;;17.00;72.30;;;;;;5009252;28;20138;-13
2022/11/18 08:27:34;;;;;;;0.40;0.20;;;17.00;72.30;;;;;;5012967;28;20035;-14
2022/11/18 08:30:00;;;;;;;1.50;0.45;;;17.00;72.20;;;;;;4995959;28;20088;-12
2022/11/18 08:32:25;;;;;;;0.38;0.17;;;17.00;72.40;;;;;;5004726;28;20495;-13
2022/11/18 08:34:51;;;;;;;0.57;0.20;;;17.00;72.30;;;;;;5011731;28;20050;-17
2022/11/18 08:37:17;;;;;;;0.28;0.28;;;17.00;72.20;;;;;;5007852;28;20037;-13
2022/11/18 08:39:42;;;;;;;1.45;0.35;;;17.00;72.40;;;;;;4995025;28;20495;-13
2022/11/18 08:42:09;;;;;;;0.32;0.30;;;17.00;72.40;;;;;;4993704;28;20113;-14
2022/11/18 08:44:35;;;;;;;0.20;0.20;;;17.00;72.50;;;;;;4998897;28;20050;-13
2022/11/18 08:47:00;;;;;;;0.30;0.30;;;17.00;72.40;;;;;;5000008;28;21651;-13
2022/11/18 08:49:26;;;;;;;0.20;0.20;;;17.00;72.40;;;;;;5007853;28;20045;-18
2022/11/18 08:51:52;;;;;;;0.25;0.20;;;17.00;72.20;;;;;;4996745;28;20079;-12
2022/11/18 08:54:17;;;;;;;0.43;0.25;;;17.00;72.20;;;;;;4997763;28;20065;-15
2022/11/18 08:56:43;;;;;;;1.05;0.30;;;17.00;72.30;;;;;;5013644;28;20046;-15
2022/11/18 08:59:09;;;;;;;0.60;0.40;;;17.00;72.20;;;;;;5007575;28;20048;-13
2022/11/18 09:01:37;;;;;;;0.35;0.20;;;17.00;72.40;;;;;;5005356;28;20141;-19
2022/11/18 09:04:03;;;;;;;0.93;0.35;;;17.00;72.40;;;;;;4993309;28;20058;-13
2022/11/18 09:06:29;;;;;;;0.82;0.30;;;16.90;72.20;;;;;;4991431;28;21085;-13
2022/11/18 09:08:54;;;;;;;0.25;0.25;;;17.00;72.20;;;;;;4994341;28;20030;-13
2022/11/18 09:11:21;;;;;;;0.13;0.10;;;17.00;71.90;;;;;;5003549;28;20548;-12
2022/11/18 09:13:50;;;;;;;0.50;0.30;;;17.00;71.90;;;;;;5011684;28;20042;-13
2022/11/18 09:16:16;;;;;;;0.28;0.10;;;17.00;71.90;;;;;;5001721;28;20046;-13
2022/11/18 09:18:41;;;;;;;0.40;0.22;;;17.00;72.00;;;;;;5001283;28;20048;-13
2022/11/18 09:21:08;;;;;;;1.15;0.20;;;17.10;71.70;;;;;;4997728;28;20063;-13
2022/11/18 09:23:34;;;;;;;0.93;0.20;;;17.10;71.80;;;;;;4994918;28;20474;-13
2022/11/18 09:26:11;;;;;;;0.22;0.17;;;17.10;71.70;;;;;;5010120;28;20052;-13
2022/11/18 09:28:36;;;;;;;0.40;0.28;;;17.10;71.50;;;;;;5017455;28;20139;-13
2022/11/18 09:31:06;;;;;;;0.10;0.10;;;17.20;71.70;;;;;;5011097;28;20054;-13
2022/11/18 09:33:33;;;;;;;0.28;0.28;;;17.20;71.60;;;;;;4996158;28;20097;-13
2022/11/18 09:35:58;;;;;;;0.22;0.20;;;17.20;71.60;;;;;;4998717;28;20089;-13
2022/11/18 09:38:24;;;;;;;0.30;0.28;;;17.20;71.50;;;;;;5001756;28;20037;-13
2022/11/18 09:41:08;;;;;;;0.30;0.10;;;17.30;71.40;;;;;;5014340;28;20049;-13
2022/11/18 09:43:37;;;;;;;;;;;17.30;71.30;;;;;;5012841;28;20042;-13
2022/11/18 09:46:07;;;;;;;0.65;0.20;;;17.50;70.90;;;;;;4996571;28;20001;-13
2022/11/18 09:51:16;;;;;;;0.40;0.25;;;17.80;69.70;;;;;;5017643;28;20072;-13
2022/11/18 09:53:43;;;;;;;0.40;0.30;;;17.90;69.20;;;;;;5015217;28;20081;-13
2022/11/18 09:56:13;;;;;;;0.50;0.38;;;17.80;69.10;;;;;;5010909;28;20059;-19
2022/11/18 09:58:39;;;;;;;0.35;0.35;;;18.00;68.70;;;;;;5007368;28;20120;-18
2022/11/18 10:01:12;;;;;;;0.85;0.30;;;18.20;68.40;;;;;;5016483;28;20071;-13
2022/11/18 10:03:39;;;;;;;0.20;0.20;;;18.10;68.20;;;;;;5009518;28;20541;-13
2022/11/18 10:06:12;;;;;;;0.40;0.40;;;18.20;68.30;;;;;;5004149;28;20117;-13
2022/11/18 10:09:05;;;;;;;0.45;0.30;;;18.20;68.20;;;;;;5013174;28;20072;-13
2022/11/18 10:11:41;;;;;;;0.65;0.40;;;18.20;68.10;;;;;;4992976;28;20074;-13
2022/11/18 10:14:17;;;;;;;0.35;0.28;;;18.20;68.20;;;;;;5012311;28;20057;-13
2022/11/18 10:17:12;;;;;;;0.47;0.40;;;18.20;68.30;;;;;;4999693;28;20041;-13
2022/11/18 10:20:07;;;;;;;0.40;0.30;;;18.10;68.60;;;;;;4999331;28;20056;-13
2022/11/18 10:22:57;;;;;;;0.73;0.30;;;18.10;68.40;;;;;;4999768;28;20490;-12
2022/11/18 10:25:22;;;;;;;0.82;0.45;;;18.20;68.40;;;;;;5011695;28;20046;-14
2022/11/18 10:27:48;;;;;;;0.32;0.30;;;18.10;68.60;;;;;;5010172;28;20041;-14
2022/11/18 10:30:19;;;;;;;0.40;0.35;;;18.00;68.80;;;;;;4998243;28;20572;-13
2022/11/18 10:33:01;;;;;;;0.57;0.40;;;17.90;69.00;;;;;;4993423;28;20042;-13
2022/11/18 10:35:35;;;;;;;0.30;0.30;;;17.90;69.10;;;;;;4994988;28;20512;-13
2022/11/18 10:38:13;;;;;;;0.75;0.30;;;17.90;69.20;;;;;;5000276;28;20074;-12
2022/11/18 10:40:49;;;;;;;0.30;0.30;;;18.00;69.10;;;;;;5009973;28;20522;-14
2022/11/18 10:43:50;;;;;;;0.70;0.30;;;18.10;68.80;;;;;;5004411;28;20081;-20
2022/11/18 10:46:25;;;;;;;0.30;0.20;;;18.00;68.80;;;;;;4634925;28;9999707;-19
2022/11/18 10:49:15;;;;;;;0.20;0.20;;;18.00;69.10;;;;;;5010100;28;20045;-13
2022/11/18 10:51:45;;;;;;;1.08;0.47;;;17.90;69.40;;;;;;5007515;28;20489;-13
2022/11/18 10:54:18;;;;;;;0.40;0.20;;;17.80;69.70;;;;;;4989947;28;20089;-13
2022/11/18 10:56:51;;;;;;;0.50;0.30;;;17.80;70.00;;;;;;4991778;28;20700;-13
2022/11/18 10:59:22;;;;;;;0.35;0.28;;;17.70;70.30;;;;;;4993065;28;20080;-13
2022/11/18 11:02:52;;;;;;;0.55;0.30;;;17.70;70.40;;;;;;4992536;28;20049;-13
2022/11/18 11:05:20;;;;;;;0.20;0.20;;;17.70;70.50;;;;;;4978861;28;20066;-13
2022/11/18 11:07:49;;;;;;;0.30;0.20;;;17.70;70.40;;;;;;5005976;28;20042;-13
2022/11/18 11:10:21;;;;;;;0.70;0.40;;;17.60;70.40;;;;;;5004960;28;20491;-27
2022/11/18 11:12:56;;;;;;;0.40;0.28;;;17.70;70.40;;;;;;4999177;28;20120;-13
2022/11/18 11:15:43;;;;;;;2.08;0.38;;;17.80;70.20;;;;;;4986789;28;20042;-13
2022/11/18 11:18:42;;;;;;;0.63;0.40;;;17.90;70.00;;;;;;4999478;28;20042;-13
2022/11/18 11:21:12;;;;;;;0.50;0.30;;;17.80;70.10;;;;;;5022547;28;20073;-13
2022/11/18 11:23:37;;;;;;;0.30;0.30;;;17.80;70.10;;;;;;5002891;28;20077;-13
2022/11/18 11:26:09;;;;;;;1.17;0.20;;;17.80;70.10;;;;;;5000838;28;20062;-13
2022/11/18 11:28:47;;;;;;;0.38;0.28;;;17.80;70.10;;;;;;4999895;28;20030;-13
2022/11/18 11:31:34;;;;;;;0.30;0.20;;;17.80;70.10;;;;;;5009224;28;20041;-13
2022/11/18 11:34:23;;;;;;;0.93;0.30;;;17.80;70.00;;;;;;4995486;28;20029;-13
2022/11/18 11:36:52;;;;;;;0.20;0.20;;;17.80;70.10;;;;;;5026660;28;20058;-14
2022/11/18 11:39:20;;;;;;;0.30;0.30;;;17.80;70.10;;;;;;5007719;28;20070;-13
2022/11/18 11:42:02;;;;;;;0.73;0.38;;;17.90;69.80;;;;;;4655628;28;9999823;-13
2022/11/18 11:44:49;;;;;;;0.30;0.30;;;17.90;69.90;;;;;;5001998;28;20037;-13
2022/11/18 11:50:52;;;;;;;1.20;0.40;;;17.80;69.90;;;;;;5000175;28;20090;-12
2022/11/18 11:53:28;;;;;;;0.22;0.22;;;17.90;70.00;;;;;;5002114;28;20064;-13
2022/11/18 11:56:12;;;;;;;0.80;0.40;;;17.90;70.00;;;;;;5008776;28;20141;-16
2022/11/18 11:58:59;;;;;;;0.33;0.30;;;17.90;69.90;;;;;;5015864;28;20057;-15
2022/11/18 12:01:51;;;;;;;0.65;0.25;;;17.90;69.80;;;;;;5008534;28;20320;-13
2022/11/18 12:04:44;;;;;;;0.40;0.30;;;17.90;69.80;;;;;;4990163;28;21977;-13
2022/11/18 12:07:24;;;;;;;0.30;0.30;;;17.90;69.90;;;;;;5001211;28;20703;-13
2022/11/18 12:10:14;;;;;;;0.40;0.30;;;18.00;69.80;;;;;;4995431;28;20042;-15
2022/11/18 12:12:43;;;;;;;0.40;0.30;;;18.00;69.70;;;;;;4972565;28;20030;-12
2022/11/18 12:15:15;;;;;;;0.35;0.35;;;17.90;69.80;;;;;;4975507;28;20129;-13
2022/11/18 12:17:46;;;;;;;0.57;0.30;;;17.90;69.70;;;;;;4978110;28;20034;-13
2022/11/18 12:20:44;;;;;;;0.30;0.30;;;18.00;69.50;;;;;;4985325;28;20049;-15
2022/11/18 12:23:22;;;;;;;0.30;0.30;;;18.00;69.40;;;;;;5007516;28;20058;-14
2022/11/18 12:26:05;;;;;;;0.22;0.20;;;18.10;69.30;;;;;;4986614;28;20068;-15
2022/11/18 12:28:44;;;;;;;0.28;0.20;;;18.00;69.40;;;;;;4993735;28;20084;-15
2022/11/18 12:31:18;;;;;;;0.68;0.38;;;18.00;69.60;;;;;;5007902;28;20037;-13
2022/11/18 12:34:03;;;;;;;0.30;0.30;;;18.00;69.60;;;;;;4999420;28;20725;-13
2022/11/18 12:36:37;;;;;;;0.30;0.28;;;18.00;69.60;;;;;;5004241;28;20050;-12
2022/11/18 12:39:24;;;;;;;1.23;0.30;;;18.00;69.70;;;;;;5014338;28;20128;-15
2022/11/18 12:44:45;;;;;;;0.43;0.40;;;18.10;69.60;;;;;;4992459;28;20099;-13
2022/11/18 12:47:12;;;;;;;0.35;0.28;;;18.00;69.50;;;;;;5004669;28;20293;-13
2022/11/18 12:49:43;;;;;;;0.38;0.30;;;18.10;69.50;;;;;;5015708;28;20045;-13
2022/11/18 12:52:28;;;;;;;0.60;0.40;;;18.10;69.50;;;;;;5011609;28;20037;-21
2022/11/18 12:54:53;;;;;;;;;;;18.00;69.70;;;;;;4992731;28;20054;-13
2022/11/18 12:57:25;;;;;;;0.70;0.20;;;18.00;69.80;;;;;;5008233;28;19928;-15
2022/11/18 12:59:51;;;;;;;0.28;0.28;;;18.10;69.30;;;;;;5009793;28;20133;-15
2022/11/18 13:02:20;;;;;;;0.68;0.30;;;18.10;69.50;;;;;;5015559;28;20172;-12
2022/11/18 13:05:00;;;;;;;0.25;0.25;;;18.10;69.60;;;;;;5009693;28;20046;-12
2022/11/18 13:10:31;;;;;;;0.47;0.40;;;18.00;70.00;;;;;;5009764;28;20137;-13
2022/11/18 13:12:58;;;;;;;0.40;0.32;;;18.10;69.90;;;;;;5010637;28;20541;-14
2022/11/18 13:18:13;;;;;;;1.35;0.50;;;18.20;69.50;;;;;;5009797;28;20140;-13
2022/11/18 13:20:39;;;;;;;1.15;0.40;;;18.30;69.30;;;;;;5009293;28;20138;-17
2022/11/18 13:26:18;;;;;;;1.05;0.40;;;18.30;69.20;;;;;;5009821;28;20044;-14
2022/11/18 13:28:58;;;;;;;0.50;0.40;;;18.30;69.20;;;;;;5008704;28;20065;-14
2022/11/18 13:31:24;;;;;;;0.50;0.30;;;18.30;69.10;;;;;;5006556;28;20073;-14